createdAt,value
2023-05-23T00:03:06.902Z,16.40
2023-05-23T00:06:50.765Z,16.30
2023-05-23T00:10:32.925Z,16.30
2023-05-23T00:14:15.602Z,16.20
2023-05-23T00:17:57.804Z,16.00
2023-05-23T00:21:39.753Z,15.90
2023-05-23T00:25:22.154Z,15.80
2023-05-23T00:29:04.117Z,15.70
2023-05-23T00:32:46.033Z,15.60
2023-05-23T00:36:28.440Z,15.50
2023-05-23T00:40:10.670Z,15.50
2023-05-23T00:43:52.969Z,15.40
2023-05-23T00:47:34.942Z,15.40
2023-05-23T00:51:16.900Z,15.30
2023-05-23T00:54:58.744Z,15.30
2023-05-23T00:58:41.248Z,15.20
2023-05-23T01:02:23.388Z,15.10
2023-05-23T01:06:05.397Z,15.10
2023-05-23T01:09:47.661Z,15.00
2023-05-23T01:13:47.212Z,14.90
2023-05-23T01:17:49.051Z,14.80
2023-05-23T01:21:32.502Z,14.80
2023-05-23T01:25:57.989Z,14.70
2023-05-23T01:29:45.936Z,14.70
2023-05-23T01:33:28.815Z,14.60
2023-05-23T01:37:14.765Z,14.50
2023-05-23T01:40:56.853Z,14.40
2023-05-23T01:44:39.457Z,14.40
2023-05-23T01:48:22.921Z,14.30
2023-05-23T01:52:05.636Z,14.30
2023-05-23T01:55:47.995Z,14.20
2023-05-23T01:59:29.939Z,14.20
2023-05-23T02:03:12.079Z,14.10
2023-05-23T02:06:54.101Z,14.10
2023-05-23T02:10:36.008Z,14.10
2023-05-23T02:14:18.762Z,14.00
2023-05-23T02:18:03.467Z,13.90
2023-05-23T02:21:45.759Z,13.90
2023-05-23T02:25:27.684Z,13.80
2023-05-23T02:29:09.549Z,13.70
2023-05-23T02:32:51.769Z,13.60
2023-05-23T02:36:34.252Z,13.60
2023-05-23T02:40:16.236Z,13.50
2023-05-23T02:43:58.777Z,13.50
2023-05-23T02:47:40.621Z,13.40
2023-05-23T02:51:22.594Z,13.30
2023-05-23T02:55:04.771Z,13.20
2023-05-23T02:58:46.639Z,13.20
2023-05-23T03:02:28.574Z,13.10
2023-05-23T03:06:14.650Z,13.00
2023-05-23T03:09:56.877Z,13.00
2023-05-23T03:13:38.930Z,13.00
2023-05-23T03:17:21.200Z,12.90
2023-05-23T03:21:03.700Z,12.80
2023-05-23T03:24:45.674Z,12.80
2023-05-23T03:28:27.550Z,12.70
2023-05-23T03:32:09.555Z,12.60
2023-05-23T03:35:52.990Z,12.60
2023-05-23T03:39:34.832Z,12.50
2023-05-23T03:43:16.702Z,12.40
2023-05-23T03:46:58.565Z,12.20
2023-05-23T03:50:40.471Z,12.10
2023-05-23T03:54:22.372Z,12.00
2023-05-23T03:58:04.249Z,12.00
2023-05-23T04:01:46.093Z,11.90
2023-05-23T04:05:27.944Z,11.90
2023-05-23T04:09:09.767Z,11.90
2023-05-23T04:12:51.732Z,11.90
2023-05-23T04:16:36.301Z,11.80
2023-05-23T04:20:18.516Z,11.70
2023-05-23T04:24:03.005Z,11.60
2023-05-23T04:27:45.115Z,11.50
2023-05-23T04:31:27.163Z,11.40
2023-05-23T04:35:10.300Z,11.40
2023-05-23T04:38:53.909Z,11.40
2023-05-23T04:42:36.154Z,11.40
2023-05-23T04:46:19.045Z,11.40
2023-05-23T04:50:05.619Z,11.40
2023-05-23T04:53:49.120Z,11.40
2023-05-23T04:57:30.996Z,11.40
2023-05-23T05:01:14.032Z,11.40
2023-05-23T05:04:55.970Z,11.30
2023-05-23T05:08:37.887Z,11.20
2023-05-23T05:12:19.757Z,11.20
2023-05-23T05:16:01.784Z,11.20
2023-05-23T05:19:43.603Z,11.30
2023-05-23T05:23:28.961Z,11.30
2023-05-23T05:27:12.025Z,11.30
2023-05-23T05:30:54.305Z,11.40
2023-05-23T05:34:37.992Z,11.40
2023-05-23T05:38:20.009Z,11.40
2023-05-23T05:42:03.804Z,11.50
2023-05-23T05:45:45.868Z,11.50
2023-05-23T05:49:28.332Z,11.50
2023-05-23T05:53:10.178Z,11.50
2023-05-23T05:56:52.039Z,11.50
2023-05-23T06:00:42.070Z,11.60
2023-05-23T06:04:24.198Z,11.60
2023-05-23T06:08:06.847Z,11.70
2023-05-23T06:11:48.755Z,11.80
2023-05-23T06:15:30.634Z,12.00
2023-05-23T06:19:12.563Z,12.40
2023-05-23T06:22:54.447Z,12.80
2023-05-23T06:26:37.710Z,13.30
2023-05-23T06:30:19.580Z,13.70
2023-05-23T06:34:01.645Z,14.10
2023-05-23T06:37:45.772Z,14.40
2023-05-23T06:41:27.722Z,14.70
2023-05-23T06:45:10.104Z,15.10
2023-05-23T06:49:02.508Z,15.50
2023-05-23T06:52:46.777Z,15.90
2023-05-23T06:56:28.642Z,16.20
2023-05-23T07:00:11.641Z,16.40
2023-05-23T07:03:53.482Z,16.50
2023-05-23T07:07:35.358Z,16.50
2023-05-23T07:11:17.267Z,16.60
2023-05-23T07:14:59.093Z,16.60
2023-05-23T07:18:41.137Z,16.50
2023-05-23T07:22:22.974Z,16.50
2023-05-23T07:26:05.107Z,16.40
2023-05-23T07:29:46.945Z,16.40
2023-05-23T07:33:29.062Z,16.30
2023-05-23T07:37:11.264Z,16.50
2023-05-23T07:41:06.781Z,16.60
2023-05-23T07:44:52.355Z,16.80
2023-05-23T07:48:34.282Z,16.90
2023-05-23T07:52:16.117Z,17.00
2023-05-23T07:55:58.029Z,17.20
2023-05-23T07:59:39.979Z,17.40
2023-05-23T08:03:21.985Z,17.60
2023-05-23T08:07:06.027Z,17.80
2023-05-23T08:10:48.310Z,17.90
2023-05-23T08:14:38.686Z,18.10
2023-05-23T08:18:31.379Z,18.30
2023-05-23T08:22:13.229Z,18.60
2023-05-23T08:25:56.249Z,18.70
2023-05-23T08:29:38.545Z,18.70
2023-05-23T08:33:20.397Z,18.60
2023-05-23T08:37:02.431Z,18.50
2023-05-23T08:40:53.511Z,18.30
2023-05-23T08:44:36.037Z,18.20
2023-05-23T08:48:20.739Z,18.10
2023-05-23T08:52:06.373Z,18.10
2023-05-23T08:55:48.969Z,18.00
2023-05-23T08:59:33.267Z,17.90
2023-05-23T09:03:15.287Z,17.90
2023-05-23T09:06:58.087Z,18.00
2023-05-23T09:10:40.734Z,18.10
2023-05-23T09:14:22.766Z,18.30
2023-05-23T09:18:04.705Z,18.50
2023-05-23T09:21:46.841Z,18.80
2023-05-23T09:25:28.698Z,19.10
2023-05-23T09:29:10.609Z,19.50
2023-05-23T09:33:03.142Z,19.80
2023-05-23T09:36:47.205Z,20.10
2023-05-23T09:40:33.378Z,20.70
2023-05-23T09:44:23.786Z,21.40
2023-05-23T09:48:12.101Z,21.90
2023-05-23T09:51:58.284Z,22.30
2023-05-23T09:55:40.594Z,22.70
2023-05-23T09:59:26.427Z,23.10
2023-05-23T10:03:11.269Z,23.50
2023-05-23T10:07:05.123Z,24.00
2023-05-23T10:11:21.977Z,24.20
2023-05-23T10:15:05.947Z,24.30
2023-05-23T10:18:55.635Z,24.70
2023-05-23T10:22:38.607Z,25.10
2023-05-23T10:26:22.051Z,25.50
2023-05-23T10:30:04.539Z,25.60
2023-05-23T10:33:56.544Z,25.40
2023-05-23T10:37:50.123Z,25.20
2023-05-23T10:41:44.922Z,25.10
2023-05-23T10:45:26.796Z,24.80
2023-05-23T10:49:08.806Z,24.60
2023-05-23T10:52:53.757Z,24.30
2023-05-23T10:56:37.170Z,24.10
2023-05-23T11:00:24.712Z,24.00
2023-05-23T11:04:07.628Z,23.90
2023-05-23T11:08:14.611Z,23.80
2023-05-23T11:12:05.490Z,23.60
2023-05-23T11:15:47.634Z,23.50
2023-05-23T11:19:30.066Z,23.40
2023-05-23T11:23:12.897Z,23.30
2023-05-23T11:27:00.487Z,23.30
2023-05-23T11:30:42.482Z,23.40
2023-05-23T11:34:27.284Z,23.40
2023-05-23T11:38:10.650Z,23.40
2023-05-23T11:42:03.013Z,23.50
2023-05-23T11:45:47.033Z,23.40
2023-05-23T11:49:37.956Z,23.40
2023-05-23T11:53:22.265Z,23.30
2023-05-23T11:57:04.765Z,23.20
2023-05-23T12:00:46.719Z,23.20
2023-05-23T12:04:29.000Z,23.10
2023-05-23T12:08:13.796Z,23.10
2023-05-23T12:11:55.787Z,23.20
2023-05-23T12:15:39.738Z,23.10
2023-05-23T12:19:21.861Z,23.20
2023-05-23T12:23:06.708Z,23.30
2023-05-23T12:26:53.344Z,23.40
2023-05-23T12:30:42.999Z,23.70
2023-05-23T12:34:25.500Z,24.40
2023-05-23T12:38:07.359Z,24.90
2023-05-23T12:41:49.192Z,25.00
2023-05-23T12:45:36.630Z,24.90
2023-05-23T12:49:18.563Z,24.70
2023-05-23T12:53:00.538Z,24.60
2023-05-23T12:56:42.360Z,24.80
2023-05-23T13:00:24.392Z,24.90
2023-05-23T13:04:06.305Z,25.30
2023-05-23T13:07:48.423Z,25.40
2023-05-23T13:11:31.496Z,25.30
2023-05-23T13:15:13.413Z,25.80
2023-05-23T13:18:55.665Z,27.10
2023-05-23T13:22:37.639Z,28.20
2023-05-23T13:26:19.680Z,28.90
2023-05-23T13:30:01.749Z,29.50
2023-05-23T13:33:43.633Z,29.80
2023-05-23T13:37:26.039Z,30.30
2023-05-23T13:41:08.089Z,30.70
2023-05-23T13:44:49.966Z,30.90
2023-05-23T13:48:31.963Z,30.70
2023-05-23T13:52:14.065Z,29.90
2023-05-23T13:55:55.979Z,29.40
2023-05-23T13:59:37.790Z,29.30
2023-05-23T14:03:19.993Z,29.30
2023-05-23T14:07:01.866Z,29.10
2023-05-23T14:10:43.888Z,28.70
2023-05-23T14:14:27.188Z,28.30
2023-05-23T14:18:09.146Z,27.80
2023-05-23T14:21:51.131Z,27.40
2023-05-23T14:25:32.999Z,27.20
2023-05-23T14:29:14.897Z,27.00
2023-05-23T14:32:56.760Z,26.80
2023-05-23T14:36:38.749Z,26.70
2023-05-23T14:40:20.659Z,26.60
2023-05-23T14:44:03.669Z,26.50
2023-05-23T14:47:45.573Z,26.30
2023-05-23T14:51:43.203Z,26.10
2023-05-23T14:55:28.424Z,25.90
2023-05-23T14:59:11.067Z,25.80
2023-05-23T15:02:52.989Z,25.80
2023-05-23T15:06:38.162Z,25.80
2023-05-23T15:10:20.101Z,25.70
2023-05-23T15:14:02.163Z,25.70
2023-05-23T15:17:44.100Z,25.60
2023-05-23T15:21:26.767Z,25.60
2023-05-23T15:25:09.699Z,25.50
2023-05-23T15:28:51.547Z,25.40
2023-05-23T15:32:33.496Z,25.20
2023-05-23T15:36:15.454Z,25.00
2023-05-23T15:39:57.463Z,24.90
2023-05-23T15:43:39.359Z,24.80
2023-05-23T15:47:21.209Z,24.70
2023-05-23T15:51:03.050Z,24.60
2023-05-23T15:54:45.059Z,24.50
2023-05-23T15:58:27.074Z,24.60
2023-05-23T16:02:10.392Z,24.60
2023-05-23T16:05:52.514Z,24.70
2023-05-23T16:09:34.398Z,24.60
2023-05-23T16:13:17.943Z,24.60
2023-05-23T16:17:02.813Z,24.50
2023-05-23T16:20:44.732Z,24.40
2023-05-23T16:24:28.188Z,24.30
2023-05-23T16:28:10.304Z,24.20
2023-05-23T16:31:52.368Z,24.00
2023-05-23T16:35:34.370Z,23.80
2023-05-23T16:39:16.294Z,23.80
2023-05-23T16:42:58.261Z,23.70
2023-05-23T16:46:40.412Z,23.50
2023-05-23T16:50:22.369Z,23.40
2023-05-23T16:54:04.309Z,23.20
2023-05-23T16:57:46.187Z,23.30
2023-05-23T17:01:29.835Z,23.20
2023-05-23T17:05:11.811Z,23.00
2023-05-23T17:08:53.717Z,23.00
2023-05-23T17:12:36.121Z,22.90
2023-05-23T17:16:20.474Z,22.90
2023-05-23T17:20:03.915Z,22.90
2023-05-23T17:23:46.036Z,22.90
2023-05-23T17:27:28.084Z,22.80
2023-05-23T17:31:10.898Z,22.80
2023-05-23T17:34:53.157Z,22.80
2023-05-23T17:38:35.110Z,22.70
2023-05-23T17:42:16.990Z,22.60
2023-05-23T17:45:58.874Z,22.50
2023-05-23T17:49:41.865Z,22.50
2023-05-23T17:53:23.917Z,22.40
2023-05-23T17:57:07.926Z,22.30
2023-05-23T18:00:50.414Z,22.20
2023-05-23T18:04:32.367Z,22.10
2023-05-23T18:08:14.383Z,22.00
2023-05-23T18:11:56.447Z,21.90
2023-05-23T18:15:39.082Z,21.80
2023-05-23T18:19:21.222Z,21.70
2023-05-23T18:23:03.373Z,21.70
2023-05-23T18:26:45.431Z,21.60
2023-05-23T18:30:27.813Z,21.60
2023-05-23T18:34:09.981Z,21.50
2023-05-23T18:37:52.088Z,21.40
2023-05-23T18:41:33.959Z,21.30
2023-05-23T18:45:16.379Z,21.30
2023-05-23T18:48:58.434Z,21.20
2023-05-23T18:52:40.874Z,21.10
2023-05-23T18:56:23.200Z,21.00
2023-05-23T19:00:06.380Z,21.00
2023-05-23T19:03:48.579Z,20.90
2023-05-23T19:07:30.910Z,20.80
2023-05-23T19:11:13.778Z,20.70
2023-05-23T19:14:55.996Z,20.60
2023-05-23T19:18:37.984Z,20.50
2023-05-23T19:22:20.005Z,20.40
2023-05-23T19:26:02.153Z,20.30
2023-05-23T19:29:44.653Z,20.20
2023-05-23T19:33:26.562Z,20.20
2023-05-23T19:37:08.567Z,20.10
2023-05-23T19:40:50.454Z,20.00
2023-05-23T19:44:32.393Z,19.80
2023-05-23T19:48:14.541Z,19.80
2023-05-23T19:51:56.571Z,19.70
2023-05-23T19:55:38.465Z,19.60
2023-05-23T19:59:20.565Z,19.50
2023-05-23T20:03:03.709Z,19.40
2023-05-23T20:06:45.715Z,19.30
2023-05-23T20:10:27.872Z,19.20
2023-05-23T20:14:10.048Z,19.10
2023-05-23T20:17:52.170Z,19.00
2023-05-23T20:21:34.115Z,18.80
2023-05-23T20:25:17.458Z,18.70
2023-05-23T20:29:00.009Z,18.60
2023-05-23T20:32:42.852Z,18.50
2023-05-23T20:36:25.100Z,18.40
2023-05-23T20:40:07.724Z,18.30
2023-05-23T20:43:49.658Z,18.20
2023-05-23T20:47:32.756Z,18.00
2023-05-23T20:51:15.801Z,17.90
2023-05-23T20:54:58.539Z,17.80
2023-05-23T20:58:43.483Z,17.70
2023-05-23T21:02:25.975Z,17.60
2023-05-23T21:06:09.047Z,17.50
2023-05-23T21:09:51.125Z,17.40
2023-05-23T21:13:32.971Z,17.40
2023-05-23T21:17:16.031Z,17.30
2023-05-23T21:20:57.908Z,17.20
2023-05-23T21:24:39.769Z,17.10
2023-05-23T21:28:21.700Z,17.00
2023-05-23T21:32:03.896Z,16.90
2023-05-23T21:35:46.017Z,16.90
2023-05-23T21:39:39.198Z,16.70
2023-05-23T21:43:29.190Z,16.60
2023-05-23T21:47:11.026Z,16.50
2023-05-23T21:50:52.871Z,16.40
2023-05-23T21:54:34.885Z,16.40
2023-05-23T21:58:16.758Z,16.20
2023-05-23T22:01:58.716Z,16.20
2023-05-23T22:05:40.671Z,16.10
2023-05-23T22:09:22.519Z,16.00
2023-05-23T22:13:04.834Z,15.80
2023-05-23T22:16:46.833Z,15.50
2023-05-23T22:20:29.795Z,15.30
2023-05-23T22:24:12.296Z,15.20
2023-05-23T22:27:54.502Z,15.10
2023-05-23T22:31:36.337Z,15.00
2023-05-23T22:35:18.198Z,15.00
2023-05-23T22:39:02.303Z,14.90
2023-05-23T22:42:44.267Z,14.90
2023-05-23T22:46:26.177Z,14.80
2023-05-23T22:50:08.344Z,14.70
2023-05-23T22:53:50.396Z,14.60
2023-05-23T22:57:32.408Z,14.50
2023-05-23T23:01:14.418Z,14.50
2023-05-23T23:04:56.305Z,14.50
2023-05-23T23:08:38.181Z,14.50
2023-05-23T23:12:20.113Z,14.50
2023-05-23T23:16:02.032Z,14.50
2023-05-23T23:19:43.995Z,14.40
2023-05-23T23:23:26.031Z,14.40
2023-05-23T23:27:07.915Z,14.30
2023-05-23T23:30:49.804Z,14.20
2023-05-23T23:34:31.713Z,14.10
2023-05-23T23:38:13.698Z,14.00
2023-05-23T23:41:55.611Z,14.00
2023-05-23T23:45:37.551Z,13.90
2023-05-23T23:49:19.633Z,13.90
2023-05-23T23:53:01.525Z,13.90
2023-05-23T23:56:43.398Z,13.80
